Terminal Aerodrome Forecast
Issued by NWS Lubbock, TX

Home | Current Version | Previous Version | Text Only | Print | Product List | Glossary On
Versions: 1 2 3 4 5 6 7 8 9 10 11 12 13 14 15 16 17 18 19 20 21 22 23 24 25 26 27
000
FTUS44 KLUB 272325
TAFLBB
TAF
KLBB 272325Z 2800/2824 10010KT 3SM -SN OVC015
     FM280200 12009KT 4SM BR BKN006 OVC010
     FM281200 13009KT 3SM BR OVC002 PROB30 2812/2818 -FZDZ
     FM281800 16011KT 6SM BR SCT006 OVC015=

USA.gov is the U.S. government's official web portal to all federal, state and local government web resources and services.